sensor_id;sensor_type;location;lat;lon;timestamp;P1;durP1;ratioP1;P2;durP2;ratioP2
52878;SDS011;38747;53.140;6.498;2023-01-28T00:01:12;9.07;;;5.28;;
52878;SDS011;38747;53.140;6.498;2023-01-28T00:03:40;9.93;;;5.70;;
52878;SDS011;38747;53.140;6.498;2023-01-28T00:06:08;9.80;;;4.95;;
52878;SDS011;38747;53.140;6.498;2023-01-28T00:08:36;9.53;;;5.33;;
52878;SDS011;38747;53.140;6.498;2023-01-28T00:11:03;10.52;;;5.10;;
52878;SDS011;38747;53.140;6.498;2023-01-28T00:13:30;9.15;;;5.25;;
52878;SDS011;38747;53.140;6.498;2023-01-28T00:15:56;8.73;;;5.03;;
52878;SDS011;38747;53.140;6.498;2023-01-28T00:18:27;8.48;;;4.75;;
52878;SDS011;38747;53.140;6.498;2023-01-28T00:21:00;8.40;;;4.90;;
52878;SDS011;38747;53.140;6.498;2023-01-28T00:23:32;8.75;;;4.93;;
52878;SDS011;38747;53.140;6.498;2023-01-28T00:26:00;9.18;;;5.10;;
52878;SDS011;38747;53.140;6.498;2023-01-28T00:28:28;8.77;;;5.37;;
52878;SDS011;38747;53.140;6.498;2023-01-28T00:30:54;9.35;;;4.93;;
52878;SDS011;38747;53.140;6.498;2023-01-28T00:33:21;8.65;;;4.68;;
52878;SDS011;38747;53.140;6.498;2023-01-28T00:35:47;9.43;;;5.30;;
52878;SDS011;38747;53.140;6.498;2023-01-28T00:38:21;9.10;;;4.97;;
52878;SDS011;38747;53.140;6.498;2023-01-28T00:40:46;8.53;;;4.50;;
52878;SDS011;38747;53.140;6.498;2023-01-28T00:43:12;9.80;;;5.17;;
52878;SDS011;38747;53.140;6.498;2023-01-28T00:45:38;8.68;;;4.60;;
52878;SDS011;38747;53.140;6.498;2023-01-28T00:48:03;9.40;;;5.05;;
52878;SDS011;38747;53.140;6.498;2023-01-28T00:50:30;8.93;;;4.80;;
52878;SDS011;38747;53.140;6.498;2023-01-28T00:52:55;8.27;;;4.68;;
52878;SDS011;38747;53.140;6.498;2023-01-28T00:55:21;9.17;;;5.10;;
52878;SDS011;38747;53.140;6.498;2023-01-28T00:57:46;9.18;;;5.57;;
52878;SDS011;38747;53.140;6.498;2023-01-28T01:00:12;9.50;;;5.43;;
52878;SDS011;38747;53.140;6.498;2023-01-28T01:02:38;9.10;;;5.00;;
52878;SDS011;38747;53.140;6.498;2023-01-28T01:05:04;9.52;;;4.90;;
52878;SDS011;38747;53.140;6.498;2023-01-28T01:07:30;9.13;;;5.22;;
52878;SDS011;38747;53.140;6.498;2023-01-28T01:10:02;8.40;;;5.17;;
52878;SDS011;38747;53.140;6.498;2023-01-28T01:12:28;9.80;;;5.22;;
52878;SDS011;38747;53.140;6.498;2023-01-28T01:14:55;9.88;;;5.55;;
52878;SDS011;38747;53.140;6.498;2023-01-28T01:17:21;10.63;;;5.70;;
52878;SDS011;38747;53.140;6.498;2023-01-28T01:19:46;11.18;;;5.90;;
52878;SDS011;38747;53.140;6.498;2023-01-28T01:22:12;9.33;;;5.37;;
52878;SDS011;38747;53.140;6.498;2023-01-28T01:24:38;10.30;;;5.78;;
52878;SDS011;38747;53.140;6.498;2023-01-28T01:27:03;9.30;;;5.20;;
52878;SDS011;38747;53.140;6.498;2023-01-28T01:29:30;9.88;;;5.40;;
52878;SDS011;38747;53.140;6.498;2023-01-28T01:31:57;11.10;;;5.75;;
52878;SDS011;38747;53.140;6.498;2023-01-28T01:34:23;10.10;;;6.03;;
52878;SDS011;38747;53.140;6.498;2023-01-28T01:36:49;9.30;;;5.40;;
52878;SDS011;38747;53.140;6.498;2023-01-28T01:39:15;8.70;;;4.90;;
52878;SDS011;38747;53.140;6.498;2023-01-28T01:41:41;8.50;;;5.00;;
52878;SDS011;38747;53.140;6.498;2023-01-28T01:44:45;7.43;;;4.72;;
52878;SDS011;38747;53.140;6.498;2023-01-28T01:47:17;8.75;;;4.60;;
52878;SDS011;38747;53.140;6.498;2023-01-28T01:49:46;6.73;;;3.80;;
52878;SDS011;38747;53.140;6.498;2023-01-28T01:52:15;8.52;;;3.47;;
52878;SDS011;38747;53.140;6.498;2023-01-28T01:54:45;6.07;;;3.00;;
52878;SDS011;38747;53.140;6.498;2023-01-28T01:57:15;7.55;;;3.15;;
52878;SDS011;38747;53.140;6.498;2023-01-28T01:59:45;6.57;;;3.37;;
52878;SDS011;38747;53.140;6.498;2023-01-28T02:02:11;7.70;;;3.60;;
52878;SDS011;38747;53.140;6.498;2023-01-28T02:04:38;6.80;;;3.85;;
52878;SDS011;38747;53.140;6.498;2023-01-28T02:07:05;7.20;;;3.53;;
52878;SDS011;38747;53.140;6.498;2023-01-28T02:09:34;6.75;;;3.60;;
52878;SDS011;38747;53.140;6.498;2023-01-28T02:12:08;10.13;;;3.37;;
52878;SDS011;38747;53.140;6.498;2023-01-28T02:17:35;7.15;;;2.45;;
52878;SDS011;38747;53.140;6.498;2023-01-28T02:28:22;5.53;;;2.50;;
52878;SDS011;38747;53.140;6.498;2023-01-28T02:31:07;5.00;;;2.42;;
52878;SDS011;38747;53.140;6.498;2023-01-28T02:33:59;5.38;;;2.80;;
52878;SDS011;38747;53.140;6.498;2023-01-28T02:39:29;6.63;;;3.20;;
52878;SDS011;38747;53.140;6.498;2023-01-28T02:42:06;5.43;;;2.80;;
52878;SDS011;38747;53.140;6.498;2023-01-28T02:44:37;6.22;;;2.80;;
52878;SDS011;38747;53.140;6.498;2023-01-28T02:47:08;6.45;;;2.90;;
52878;SDS011;38747;53.140;6.498;2023-01-28T02:49:54;6.63;;;3.03;;
52878;SDS011;38747;53.140;6.498;2023-01-28T03:00:58;5.78;;;2.72;;
52878;SDS011;38747;53.140;6.498;2023-01-28T03:03:44;5.43;;;2.80;;
52878;SDS011;38747;53.140;6.498;2023-01-28T03:06:21;5.60;;;2.95;;
52878;SDS011;38747;53.140;6.498;2023-01-28T03:08:55;6.57;;;3.22;;
52878;SDS011;38747;53.140;6.498;2023-01-28T03:11:46;6.18;;;3.15;;
52878;SDS011;38747;53.140;6.498;2023-01-28T03:14:44;8.65;;;3.33;;
52878;SDS011;38747;53.140;6.498;2023-01-28T03:17:36;5.47;;;3.00;;
52878;SDS011;38747;53.140;6.498;2023-01-28T03:20:24;6.13;;;3.17;;
52878;SDS011;38747;53.140;6.498;2023-01-28T03:23:13;5.47;;;2.78;;
52878;SDS011;38747;53.140;6.498;2023-01-28T03:26:03;5.75;;;2.60;;
52878;SDS011;38747;53.140;6.498;2023-01-28T03:28:51;5.60;;;2.80;;
52878;SDS011;38747;53.140;6.498;2023-01-28T03:31:41;5.83;;;2.73;;
52878;SDS011;38747;53.140;6.498;2023-01-28T03:34:25;6.90;;;2.80;;
52878;SDS011;38747;53.140;6.498;2023-01-28T03:37:10;6.07;;;2.50;;
52878;SDS011;38747;53.140;6.498;2023-01-28T03:39:38;7.30;;;2.88;;
52878;SDS011;38747;53.140;6.498;2023-01-28T03:42:08;7.20;;;3.40;;
52878;SDS011;38747;53.140;6.498;2023-01-28T03:44:36;6.60;;;3.28;;
52878;SDS011;38747;53.140;6.498;2023-01-28T03:47:22;6.57;;;3.53;;
52878;SDS011;38747;53.140;6.498;2023-01-28T03:49:50;7.20;;;3.40;;
52878;SDS011;38747;53.140;6.498;2023-01-28T03:52:18;7.00;;;3.90;;
52878;SDS011;38747;53.140;6.498;2023-01-28T03:54:46;6.70;;;3.53;;
52878;SDS011;38747;53.140;6.498;2023-01-28T03:57:16;6.80;;;3.60;;
52878;SDS011;38747;53.140;6.498;2023-01-28T03:59:42;7.72;;;3.40;;
52878;SDS011;38747;53.140;6.498;2023-01-28T04:02:09;7.72;;;4.22;;
52878;SDS011;38747;53.140;6.498;2023-01-28T04:04:37;7.80;;;3.87;;
52878;SDS011;38747;53.140;6.498;2023-01-28T04:07:04;7.75;;;3.92;;
52878;SDS011;38747;53.140;6.498;2023-01-28T04:09:33;9.45;;;4.18;;
52878;SDS011;38747;53.140;6.498;2023-01-28T04:11:59;8.98;;;4.60;;
52878;SDS011;38747;53.140;6.498;2023-01-28T04:14:25;7.60;;;4.27;;
52878;SDS011;38747;53.140;6.498;2023-01-28T04:16:51;7.55;;;4.18;;
52878;SDS011;38747;53.140;6.498;2023-01-28T04:19:19;7.15;;;4.00;;
52878;SDS011;38747;53.140;6.498;2023-01-28T04:21:45;7.37;;;4.10;;
52878;SDS011;38747;53.140;6.498;2023-01-28T04:24:11;6.93;;;4.00;;
52878;SDS011;38747;53.140;6.498;2023-01-28T04:26:37;7.68;;;4.57;;
52878;SDS011;38747;53.140;6.498;2023-01-28T04:29:03;7.50;;;3.90;;
52878;SDS011;38747;53.140;6.498;2023-01-28T04:31:28;7.60;;;4.20;;
52878;SDS011;38747;53.140;6.498;2023-01-28T04:33:54;7.78;;;4.43;;
52878;SDS011;38747;53.140;6.498;2023-01-28T04:36:20;7.13;;;4.40;;
52878;SDS011;38747;53.140;6.498;2023-01-28T04:38:46;7.10;;;4.10;;
52878;SDS011;38747;53.140;6.498;2023-01-28T04:41:11;8.00;;;4.23;;
52878;SDS011;38747;53.140;6.498;2023-01-28T04:43:37;7.40;;;4.20;;
52878;SDS011;38747;53.140;6.498;2023-01-28T04:46:03;8.68;;;4.35;;
52878;SDS011;38747;53.140;6.498;2023-01-28T04:48:28;9.20;;;4.30;;
52878;SDS011;38747;53.140;6.498;2023-01-28T04:50:55;8.15;;;4.32;;
52878;SDS011;38747;53.140;6.498;2023-01-28T04:53:21;8.18;;;4.68;;
52878;SDS011;38747;53.140;6.498;2023-01-28T04:55:46;8.00;;;4.37;;
52878;SDS011;38747;53.140;6.498;2023-01-28T04:58:12;8.77;;;4.47;;
52878;SDS011;38747;53.140;6.498;2023-01-28T05:00:37;7.68;;;4.40;;
52878;SDS011;38747;53.140;6.498;2023-01-28T05:03:03;8.63;;;4.60;;
52878;SDS011;38747;53.140;6.498;2023-01-28T05:05:29;7.10;;;4.13;;
52878;SDS011;38747;53.140;6.498;2023-01-28T05:07:55;9.10;;;4.40;;
52878;SDS011;38747;53.140;6.498;2023-01-28T05:10:21;7.95;;;4.40;;
52878;SDS011;38747;53.140;6.498;2023-01-28T05:12:48;8.18;;;4.45;;
52878;SDS011;38747;53.140;6.498;2023-01-28T05:15:14;8.23;;;4.67;;
52878;SDS011;38747;53.140;6.498;2023-01-28T05:17:41;8.43;;;4.85;;
52878;SDS011;38747;53.140;6.498;2023-01-28T05:20:08;8.82;;;4.60;;
52878;SDS011;38747;53.140;6.498;2023-01-28T05:22:36;9.10;;;5.30;;
52878;SDS011;38747;53.140;6.498;2023-01-28T05:25:01;8.37;;;4.60;;
52878;SDS011;38747;53.140;6.498;2023-01-28T05:27:28;8.25;;;4.70;;
52878;SDS011;38747;53.140;6.498;2023-01-28T05:29:55;11.60;;;5.15;;
52878;SDS011;38747;53.140;6.498;2023-01-28T05:32:20;8.20;;;4.83;;
52878;SDS011;38747;53.140;6.498;2023-01-28T05:34:46;8.30;;;4.95;;
52878;SDS011;38747;53.140;6.498;2023-01-28T05:37:12;9.93;;;5.17;;
52878;SDS011;38747;53.140;6.498;2023-01-28T05:39:37;9.02;;;5.10;;
52878;SDS011;38747;53.140;6.498;2023-01-28T05:42:03;9.07;;;5.10;;
52878;SDS011;38747;53.140;6.498;2023-01-28T05:44:28;8.88;;;4.90;;
52878;SDS011;38747;53.140;6.498;2023-01-28T05:46:54;10.50;;;5.80;;
52878;SDS011;38747;53.140;6.498;2023-01-28T05:49:20;8.90;;;4.87;;
52878;SDS011;38747;53.140;6.498;2023-01-28T05:51:46;9.38;;;5.57;;
52878;SDS011;38747;53.140;6.498;2023-01-28T05:54:12;9.70;;;5.20;;
52878;SDS011;38747;53.140;6.498;2023-01-28T05:56:38;9.43;;;5.20;;
52878;SDS011;38747;53.140;6.498;2023-01-28T05:59:04;9.27;;;5.20;;
52878;SDS011;38747;53.140;6.498;2023-01-28T06:01:30;9.10;;;5.30;;
52878;SDS011;38747;53.140;6.498;2023-01-28T06:03:56;9.60;;;5.47;;
52878;SDS011;38747;53.140;6.498;2023-01-28T06:06:23;10.52;;;5.75;;
52878;SDS011;38747;53.140;6.498;2023-01-28T06:08:49;11.57;;;6.10;;
52878;SDS011;38747;53.140;6.498;2023-01-28T06:11:14;10.73;;;6.00;;
52878;SDS011;38747;53.140;6.498;2023-01-28T06:13:40;12.20;;;6.20;;
52878;SDS011;38747;53.140;6.498;2023-01-28T06:16:06;11.30;;;6.63;;
52878;SDS011;38747;53.140;6.498;2023-01-28T06:18:32;12.57;;;6.70;;
52878;SDS011;38747;53.140;6.498;2023-01-28T06:20:58;10.95;;;6.45;;
52878;SDS011;38747;53.140;6.498;2023-01-28T06:23:24;11.90;;;7.13;;
52878;SDS011;38747;53.140;6.498;2023-01-28T06:25:53;11.18;;;6.65;;
52878;SDS011;38747;53.140;6.498;2023-01-28T06:28:19;11.32;;;6.60;;
52878;SDS011;38747;53.140;6.498;2023-01-28T06:30:47;11.70;;;6.50;;
52878;SDS011;38747;53.140;6.498;2023-01-28T06:33:13;10.40;;;6.17;;
52878;SDS011;38747;53.140;6.498;2023-01-28T06:35:39;12.38;;;6.57;;
52878;SDS011;38747;53.140;6.498;2023-01-28T06:38:05;11.13;;;6.28;;
52878;SDS011;38747;53.140;6.498;2023-01-28T06:40:31;10.83;;;6.40;;
52878;SDS011;38747;53.140;6.498;2023-01-28T06:42:57;10.60;;;6.15;;
52878;SDS011;38747;53.140;6.498;2023-01-28T06:45:22;11.83;;;6.30;;
52878;SDS011;38747;53.140;6.498;2023-01-28T06:47:48;11.48;;;6.00;;
52878;SDS011;38747;53.140;6.498;2023-01-28T06:50:13;11.83;;;6.77;;
52878;SDS011;38747;53.140;6.498;2023-01-28T06:52:39;11.88;;;6.10;;
52878;SDS011;38747;53.140;6.498;2023-01-28T06:55:05;12.43;;;6.87;;
52878;SDS011;38747;53.140;6.498;2023-01-28T06:57:32;11.65;;;7.10;;
52878;SDS011;38747;53.140;6.498;2023-01-28T06:59:57;15.07;;;6.75;;
52878;SDS011;38747;53.140;6.498;2023-01-28T07:02:23;12.10;;;6.90;;
52878;SDS011;38747;53.140;6.498;2023-01-28T07:04:49;12.27;;;7.10;;
52878;SDS011;38747;53.140;6.498;2023-01-28T07:07:14;11.93;;;6.37;;
52878;SDS011;38747;53.140;6.498;2023-01-28T07:09:40;12.43;;;6.60;;
52878;SDS011;38747;53.140;6.498;2023-01-28T07:12:05;9.65;;;5.78;;
52878;SDS011;38747;53.140;6.498;2023-01-28T07:14:31;9.67;;;5.57;;
52878;SDS011;38747;53.140;6.498;2023-01-28T07:16:57;10.20;;;5.40;;
52878;SDS011;38747;53.140;6.498;2023-01-28T07:19:22;10.40;;;5.83;;
52878;SDS011;38747;53.140;6.498;2023-01-28T07:21:48;10.40;;;5.88;;
52878;SDS011;38747;53.140;6.498;2023-01-28T07:24:14;10.30;;;5.40;;
52878;SDS011;38747;53.140;6.498;2023-01-28T07:26:39;11.20;;;6.00;;
52878;SDS011;38747;53.140;6.498;2023-01-28T07:29:05;8.77;;;4.90;;
52878;SDS011;38747;53.140;6.498;2023-01-28T07:31:30;8.20;;;4.70;;
52878;SDS011;38747;53.140;6.498;2023-01-28T07:33:56;9.40;;;4.90;;
52878;SDS011;38747;53.140;6.498;2023-01-28T07:36:22;9.40;;;5.17;;
52878;SDS011;38747;53.140;6.498;2023-01-28T07:38:47;10.18;;;4.80;;
52878;SDS011;38747;53.140;6.498;2023-01-28T07:41:13;8.97;;;4.73;;
52878;SDS011;38747;53.140;6.498;2023-01-28T07:43:38;9.27;;;4.93;;
52878;SDS011;38747;53.140;6.498;2023-01-28T07:46:04;9.35;;;5.00;;
52878;SDS011;38747;53.140;6.498;2023-01-28T07:48:30;10.20;;;5.20;;
52878;SDS011;38747;53.140;6.498;2023-01-28T07:50:58;9.15;;;5.18;;
52878;SDS011;38747;53.140;6.498;2023-01-28T07:53:24;9.35;;;5.30;;
52878;SDS011;38747;53.140;6.498;2023-01-28T07:55:50;9.30;;;5.20;;
52878;SDS011;38747;53.140;6.498;2023-01-28T07:58:15;10.07;;;5.33;;
52878;SDS011;38747;53.140;6.498;2023-01-28T08:00:41;9.85;;;5.05;;
52878;SDS011;38747;53.140;6.498;2023-01-28T08:03:10;10.90;;;5.53;;
52878;SDS011;38747;53.140;6.498;2023-01-28T08:05:47;10.38;;;5.55;;
52878;SDS011;38747;53.140;6.498;2023-01-28T08:08:15;12.32;;;5.80;;
52878;SDS011;38747;53.140;6.498;2023-01-28T08:10:41;10.05;;;5.55;;
52878;SDS011;38747;53.140;6.498;2023-01-28T08:13:08;11.17;;;5.40;;
52878;SDS011;38747;53.140;6.498;2023-01-28T08:15:34;10.82;;;5.18;;
52878;SDS011;38747;53.140;6.498;2023-01-28T08:18:00;12.70;;;5.72;;
52878;SDS011;38747;53.140;6.498;2023-01-28T08:20:27;10.43;;;5.22;;
52878;SDS011;38747;53.140;6.498;2023-01-28T08:23:02;9.25;;;5.03;;
52878;SDS011;38747;53.140;6.498;2023-01-28T08:25:33;11.20;;;5.60;;
52878;SDS011;38747;53.140;6.498;2023-01-28T08:27:59;10.05;;;5.00;;
52878;SDS011;38747;53.140;6.498;2023-01-28T08:30:25;10.15;;;5.30;;
52878;SDS011;38747;53.140;6.498;2023-01-28T08:32:53;9.97;;;5.50;;
52878;SDS011;38747;53.140;6.498;2023-01-28T08:35:20;10.13;;;5.32;;
52878;SDS011;38747;53.140;6.498;2023-01-28T08:37:46;12.32;;;6.07;;
52878;SDS011;38747;53.140;6.498;2023-01-28T08:40:12;14.80;;;6.83;;
52878;SDS011;38747;53.140;6.498;2023-01-28T08:42:37;12.80;;;6.03;;
52878;SDS011;38747;53.140;6.498;2023-01-28T08:45:03;10.05;;;5.30;;
52878;SDS011;38747;53.140;6.498;2023-01-28T08:47:29;10.82;;;5.60;;
52878;SDS011;38747;53.140;6.498;2023-01-28T08:49:55;11.23;;;5.43;;
52878;SDS011;38747;53.140;6.498;2023-01-28T08:52:20;10.47;;;5.30;;
52878;SDS011;38747;53.140;6.498;2023-01-28T08:54:46;12.20;;;5.40;;
52878;SDS011;38747;53.140;6.498;2023-01-28T08:57:12;11.73;;;5.37;;
52878;SDS011;38747;53.140;6.498;2023-01-28T08:59:37;9.93;;;5.60;;
52878;SDS011;38747;53.140;6.498;2023-01-28T09:02:10;9.57;;;5.13;;
52878;SDS011;38747;53.140;6.498;2023-01-28T09:04:38;12.60;;;5.23;;
52878;SDS011;38747;53.140;6.498;2023-01-28T09:07:04;8.95;;;5.15;;
52878;SDS011;38747;53.140;6.498;2023-01-28T09:09:29;10.73;;;5.90;;
52878;SDS011;38747;53.140;6.498;2023-01-28T09:11:55;9.20;;;5.22;;
52878;SDS011;38747;53.140;6.498;2023-01-28T09:14:21;9.23;;;5.40;;
52878;SDS011;38747;53.140;6.498;2023-01-28T09:16:46;9.57;;;5.28;;
52878;SDS011;38747;53.140;6.498;2023-01-28T09:19:12;9.60;;;5.17;;
52878;SDS011;38747;53.140;6.498;2023-01-28T09:21:38;9.70;;;5.45;;
52878;SDS011;38747;53.140;6.498;2023-01-28T09:24:04;10.33;;;5.60;;
52878;SDS011;38747;53.140;6.498;2023-01-28T09:26:30;9.10;;;5.15;;
52878;SDS011;38747;53.140;6.498;2023-01-28T09:28:58;9.45;;;4.95;;
52878;SDS011;38747;53.140;6.498;2023-01-28T09:31:24;9.50;;;5.03;;
52878;SDS011;38747;53.140;6.498;2023-01-28T09:33:50;12.95;;;5.50;;
52878;SDS011;38747;53.140;6.498;2023-01-28T09:36:20;9.07;;;4.45;;
52878;SDS011;38747;53.140;6.498;2023-01-28T09:38:46;9.80;;;4.77;;
52878;SDS011;38747;53.140;6.498;2023-01-28T09:41:18;9.30;;;5.03;;
52878;SDS011;38747;53.140;6.498;2023-01-28T09:43:52;10.60;;;4.80;;
52878;SDS011;38747;53.140;6.498;2023-01-28T09:46:36;8.32;;;4.25;;
52878;SDS011;38747;53.140;6.498;2023-01-28T09:49:08;8.65;;;4.93;;
52878;SDS011;38747;53.140;6.498;2023-01-28T09:51:58;10.05;;;4.78;;
52878;SDS011;38747;53.140;6.498;2023-01-28T09:54:41;9.93;;;5.00;;
52878;SDS011;38747;53.140;6.498;2023-01-28T09:57:21;9.63;;;5.05;;
52878;SDS011;38747;53.140;6.498;2023-01-28T09:59:50;9.43;;;5.07;;
52878;SDS011;38747;53.140;6.498;2023-01-28T10:05:19;10.00;;;4.77;;
52878;SDS011;38747;53.140;6.498;2023-01-28T10:13:30;8.90;;;4.60;;
52878;SDS011;38747;53.140;6.498;2023-01-28T10:16:26;8.30;;;4.32;;
52878;SDS011;38747;53.140;6.498;2023-01-28T10:19:06;9.13;;;5.00;;
52878;SDS011;38747;53.140;6.498;2023-01-28T10:21:36;8.43;;;4.47;;
52878;SDS011;38747;53.140;6.498;2023-01-28T10:24:10;8.88;;;4.72;;
52878;SDS011;38747;53.140;6.498;2023-01-28T10:27:09;9.45;;;4.75;;
52878;SDS011;38747;53.140;6.498;2023-01-28T10:29:39;10.40;;;4.70;;
52878;SDS011;38747;53.140;6.498;2023-01-28T10:34:58;11.10;;;5.05;;
52878;SDS011;38747;53.140;6.498;2023-01-28T10:37:25;9.00;;;4.72;;
52878;SDS011;38747;53.140;6.498;2023-01-28T10:39:54;9.98;;;4.85;;
52878;SDS011;38747;53.140;6.498;2023-01-28T10:42:26;9.35;;;4.60;;
52878;SDS011;38747;53.140;6.498;2023-01-28T10:44:57;8.37;;;4.43;;
52878;SDS011;38747;53.140;6.498;2023-01-28T10:47:32;9.60;;;5.00;;
52878;SDS011;38747;53.140;6.498;2023-01-28T10:50:26;9.82;;;5.32;;
52878;SDS011;38747;53.140;6.498;2023-01-28T10:55:24;8.43;;;4.53;;
52878;SDS011;38747;53.140;6.498;2023-01-28T10:57:54;8.27;;;4.47;;
52878;SDS011;38747;53.140;6.498;2023-01-28T11:00:24;9.00;;;4.80;;
52878;SDS011;38747;53.140;6.498;2023-01-28T11:02:54;9.98;;;4.72;;
52878;SDS011;38747;53.140;6.498;2023-01-28T11:05:25;9.82;;;5.20;;
52878;SDS011;38747;53.140;6.498;2023-01-28T11:10:54;9.67;;;5.00;;
52878;SDS011;38747;53.140;6.498;2023-01-28T11:13:21;9.68;;;4.95;;
52878;SDS011;38747;53.140;6.498;2023-01-28T11:15:52;9.27;;;4.90;;
52878;SDS011;38747;53.140;6.498;2023-01-28T11:18:25;10.10;;;4.80;;
52878;SDS011;38747;53.140;6.498;2023-01-28T11:20:59;10.43;;;5.13;;
52878;SDS011;38747;53.140;6.498;2023-01-28T11:23:28;8.27;;;4.23;;
52878;SDS011;38747;53.140;6.498;2023-01-28T11:25:59;9.27;;;4.70;;
52878;SDS011;38747;53.140;6.498;2023-01-28T11:28:31;10.32;;;5.22;;
52878;SDS011;38747;53.140;6.498;2023-01-28T11:30:57;9.60;;;4.85;;
52878;SDS011;38747;53.140;6.498;2023-01-28T11:36:10;10.20;;;4.87;;
52878;SDS011;38747;53.140;6.498;2023-01-28T11:38:56;9.85;;;4.90;;
52878;SDS011;38747;53.140;6.498;2023-01-28T11:41:30;10.55;;;5.22;;
52878;SDS011;38747;53.140;6.498;2023-01-28T11:43:58;11.10;;;5.30;;
52878;SDS011;38747;53.140;6.498;2023-01-28T11:46:39;9.73;;;5.25;;
52878;SDS011;38747;53.140;6.498;2023-01-28T11:52:24;9.07;;;5.10;;
52878;SDS011;38747;53.140;6.498;2023-01-28T11:57:48;10.07;;;5.40;;
52878;SDS011;38747;53.140;6.498;2023-01-28T12:05:50;9.88;;;5.05;;
52878;SDS011;38747;53.140;6.498;2023-01-28T12:08:38;11.25;;;5.25;;
52878;SDS011;38747;53.140;6.498;2023-01-28T12:20:41;10.48;;;5.00;;
52878;SDS011;38747;53.140;6.498;2023-01-28T12:26:03;11.05;;;5.25;;
52878;SDS011;38747;53.140;6.498;2023-01-28T12:42:52;11.63;;;5.85;;
52878;SDS011;38747;53.140;6.498;2023-01-28T12:48:02;13.18;;;5.93;;
52878;SDS011;38747;53.140;6.498;2023-01-28T12:50:38;12.13;;;5.53;;
52878;SDS011;38747;53.140;6.498;2023-01-28T12:56:16;11.25;;;5.45;;
52878;SDS011;38747;53.140;6.498;2023-01-28T12:58:54;12.60;;;5.57;;
52878;SDS011;38747;53.140;6.498;2023-01-28T13:04:15;11.10;;;5.28;;
52878;SDS011;38747;53.140;6.498;2023-01-28T13:07:03;9.93;;;4.57;;
52878;SDS011;38747;53.140;6.498;2023-01-28T13:09:45;10.75;;;4.75;;
52878;SDS011;38747;53.140;6.498;2023-01-28T13:12:17;12.23;;;4.73;;
52878;SDS011;38747;53.140;6.498;2023-01-28T13:14:44;9.43;;;4.38;;
52878;SDS011;38747;53.140;6.498;2023-01-28T13:17:11;10.18;;;4.95;;
52878;SDS011;38747;53.140;6.498;2023-01-28T13:19:54;9.50;;;4.70;;
52878;SDS011;38747;53.140;6.498;2023-01-28T13:22:31;10.95;;;4.95;;
52878;SDS011;38747;53.140;6.498;2023-01-28T13:30:59;9.27;;;4.57;;
52878;SDS011;38747;53.140;6.498;2023-01-28T13:33:33;11.13;;;4.40;;
52878;SDS011;38747;53.140;6.498;2023-01-28T13:36:02;9.85;;;4.18;;
52878;SDS011;38747;53.140;6.498;2023-01-28T13:38:47;9.77;;;4.00;;
52878;SDS011;38747;53.140;6.498;2023-01-28T13:41:23;10.10;;;4.00;;
52878;SDS011;38747;53.140;6.498;2023-01-28T13:43:48;9.32;;;4.60;;
52878;SDS011;38747;53.140;6.498;2023-01-28T13:46:27;9.50;;;4.47;;
52878;SDS011;38747;53.140;6.498;2023-01-28T13:48:56;8.35;;;4.05;;
52878;SDS011;38747;53.140;6.498;2023-01-28T13:51:27;10.35;;;4.30;;
52878;SDS011;38747;53.140;6.498;2023-01-28T13:56:25;9.82;;;4.68;;
52878;SDS011;38747;53.140;6.498;2023-01-28T14:16:03;9.75;;;4.38;;
52878;SDS011;38747;53.140;6.498;2023-01-28T14:17:56;10.40;;;4.28;;
52878;SDS011;38747;53.140;6.498;2023-01-28T14:20:27;10.60;;;4.80;;
52878;SDS011;38747;53.140;6.498;2023-01-28T14:23:02;9.75;;;4.30;;
52878;SDS011;38747;53.140;6.498;2023-01-28T14:25:53;11.55;;;5.28;;
52878;SDS011;38747;53.140;6.498;2023-01-28T14:28:47;10.27;;;4.60;;
52878;SDS011;38747;53.140;6.498;2023-01-28T14:31:34;10.10;;;4.88;;
52878;SDS011;38747;53.140;6.498;2023-01-28T14:37:05;9.68;;;4.70;;
52878;SDS011;38747;53.140;6.498;2023-01-28T14:39:41;11.02;;;4.72;;
52878;SDS011;38747;53.140;6.498;2023-01-28T14:42:21;8.80;;;4.20;;
52878;SDS011;38747;53.140;6.498;2023-01-28T14:44:57;11.57;;;4.50;;
52878;SDS011;38747;53.140;6.498;2023-01-28T14:50:31;9.73;;;4.63;;
52878;SDS011;38747;53.140;6.498;2023-01-28T14:56:27;10.70;;;4.70;;
52878;SDS011;38747;53.140;6.498;2023-01-28T14:59:01;10.00;;;4.55;;
52878;SDS011;38747;53.140;6.498;2023-01-28T15:01:31;12.20;;;4.68;;
52878;SDS011;38747;53.140;6.498;2023-01-28T15:03:57;9.83;;;4.37;;
52878;SDS011;38747;53.140;6.498;2023-01-28T15:06:24;10.10;;;4.35;;
52878;SDS011;38747;53.140;6.498;2023-01-28T15:09:04;10.48;;;4.50;;
52878;SDS011;38747;53.140;6.498;2023-01-28T15:11:32;10.97;;;4.80;;
52878;SDS011;38747;53.140;6.498;2023-01-28T15:14:00;10.98;;;4.97;;
52878;SDS011;38747;53.140;6.498;2023-01-28T15:16:27;10.38;;;4.13;;
52878;SDS011;38747;53.140;6.498;2023-01-28T15:18:56;9.30;;;4.18;;
52878;SDS011;38747;53.140;6.498;2023-01-28T15:21:26;8.97;;;3.97;;
52878;SDS011;38747;53.140;6.498;2023-01-28T15:23:57;10.00;;;4.28;;
52878;SDS011;38747;53.140;6.498;2023-01-28T15:26:25;10.52;;;3.80;;
52878;SDS011;38747;53.140;6.498;2023-01-28T15:28:53;9.30;;;3.70;;
52878;SDS011;38747;53.140;6.498;2023-01-28T15:31:29;10.65;;;4.68;;
52878;SDS011;38747;53.140;6.498;2023-01-28T15:36:44;11.57;;;3.83;;
52878;SDS011;38747;53.140;6.498;2023-01-28T15:39:16;11.57;;;4.13;;
52878;SDS011;38747;53.140;6.498;2023-01-28T15:41:45;10.63;;;3.88;;
52878;SDS011;38747;53.140;6.498;2023-01-28T15:44:33;9.73;;;3.80;;
52878;SDS011;38747;53.140;6.498;2023-01-28T15:47:13;10.97;;;3.60;;
52878;SDS011;38747;53.140;6.498;2023-01-28T15:49:42;10.40;;;3.90;;
52878;SDS011;38747;53.140;6.498;2023-01-28T15:52:11;10.98;;;3.95;;
52878;SDS011;38747;53.140;6.498;2023-01-28T15:54:38;11.25;;;4.45;;
52878;SDS011;38747;53.140;6.498;2023-01-28T15:57:14;10.57;;;4.90;;
52878;SDS011;38747;53.140;6.498;2023-01-28T15:59:43;11.77;;;4.60;;
52878;SDS011;38747;53.140;6.498;2023-01-28T16:05:00;15.23;;;4.80;;
52878;SDS011;38747;53.140;6.498;2023-01-28T16:07:32;10.35;;;4.65;;
52878;SDS011;38747;53.140;6.498;2023-01-28T16:10:17;13.25;;;5.22;;
52878;SDS011;38747;53.140;6.498;2023-01-28T16:12:50;11.40;;;4.50;;
52878;SDS011;38747;53.140;6.498;2023-01-28T16:15:18;9.35;;;3.90;;
52878;SDS011;38747;53.140;6.498;2023-01-28T16:17:49;11.93;;;4.93;;
52878;SDS011;38747;53.140;6.498;2023-01-28T16:22:56;11.15;;;5.13;;
52878;SDS011;38747;53.140;6.498;2023-01-28T16:25:31;11.43;;;4.43;;
52878;SDS011;38747;53.140;6.498;2023-01-28T16:27:59;9.60;;;4.07;;
52878;SDS011;38747;53.140;6.498;2023-01-28T16:30:26;10.90;;;4.45;;
52878;SDS011;38747;53.140;6.498;2023-01-28T16:32:52;11.88;;;4.95;;
52878;SDS011;38747;53.140;6.498;2023-01-28T16:35:28;11.13;;;4.35;;
52878;SDS011;38747;53.140;6.498;2023-01-28T16:37:54;9.87;;;4.00;;
52878;SDS011;38747;53.140;6.498;2023-01-28T16:40:23;11.10;;;4.10;;
52878;SDS011;38747;53.140;6.498;2023-01-28T16:42:50;10.13;;;3.85;;
52878;SDS011;38747;53.140;6.498;2023-01-28T16:45:20;10.27;;;4.03;;
52878;SDS011;38747;53.140;6.498;2023-01-28T16:47:48;9.35;;;3.95;;
52878;SDS011;38747;53.140;6.498;2023-01-28T16:50:15;9.75;;;4.05;;
52878;SDS011;38747;53.140;6.498;2023-01-28T16:52:42;13.75;;;4.47;;
52878;SDS011;38747;53.140;6.498;2023-01-28T16:55:10;11.23;;;3.78;;
52878;SDS011;38747;53.140;6.498;2023-01-28T16:57:41;10.63;;;4.67;;
52878;SDS011;38747;53.140;6.498;2023-01-28T17:00:19;10.77;;;4.55;;
52878;SDS011;38747;53.140;6.498;2023-01-28T17:02:47;10.90;;;4.13;;
52878;SDS011;38747;53.140;6.498;2023-01-28T17:05:13;10.05;;;4.20;;
52878;SDS011;38747;53.140;6.498;2023-01-28T17:07:39;11.98;;;4.30;;
52878;SDS011;38747;53.140;6.498;2023-01-28T17:10:05;12.37;;;4.70;;
52878;SDS011;38747;53.140;6.498;2023-01-28T17:12:31;10.68;;;4.93;;